Time;durP1;ratioP1;P1;durP2;ratioP2;P2;SDS_P1;SDS_P2;PMS_P1;PMS_P2;Temp;Humidity;BMP_temperature;BMP_pressure;BME280_temperature;BME280_humidity;BME280_pressure;Samples;Min_cycle;Max_cycle;Signal;HPM_P1;HPM_P2
2021/03/20 00:00:27;;;;;;;10.80;4.28;;;;;;;-2.57;84.21;99584.34;4999180;28;20412;-71
2021/03/20 00:02:53;;;;;;;9.40;4.30;;;;;;;-2.55;83.82;99584.25;4979083;28;20042;-71
2021/03/20 00:05:20;;;;;;;10.15;4.03;;;;;;;-2.51;83.73;99585.75;5001279;28;20061;-70
2021/03/20 00:07:45;;;;;;;9.57;4.38;;;;;;;-2.43;83.59;99586.09;4990191;28;20476;-70
2021/03/20 00:10:14;;;;;;;9.70;4.35;;;;;;;-2.51;83.38;99577.81;4995386;28;20034;-74
2021/03/20 00:12:42;;;;;;;12.65;4.72;;;;;;;-2.52;83.75;99592.84;4995484;28;20022;-73
2021/03/20 00:15:09;;;;;;;8.55;4.10;;;;;;;-2.52;84.56;99592.00;5011561;28;20030;-73
2021/03/20 00:17:34;;;;;;;7.97;4.03;;;;;;;-2.60;84.49;99592.50;5013778;28;20483;-73
2021/03/20 00:19:59;;;;;;;10.90;4.40;;;;;;;-2.57;84.61;99597.59;5011440;28;20060;-74
2021/03/20 00:22:25;;;;;;;10.00;4.22;;;;;;;-2.62;84.47;99594.41;5004505;28;20104;-74
2021/03/20 00:24:50;;;;;;;8.38;4.38;;;;;;;-2.67;84.67;99607.13;4997088;28;20038;-73
2021/03/20 00:27:15;;;;;;;7.50;4.28;;;;;;;-2.77;85.08;99592.75;4998887;28;20463;-74
2021/03/20 00:29:41;;;;;;;10.57;4.15;;;;;;;-2.57;84.88;99599.38;5012162;28;20037;-74
2021/03/20 00:32:06;;;;;;;9.27;4.55;;;;;;;-2.60;84.01;99599.59;5004740;28;20034;-73
2021/03/20 00:34:31;;;;;;;11.75;6.20;;;;;;;-2.58;83.94;99605.66;4993756;28;20034;-73
2021/03/20 00:36:57;;;;;;;13.98;7.03;;;;;;;-2.77;84.72;99595.41;4997827;28;20030;-74
2021/03/20 00:39:22;;;;;;;14.88;7.00;;;;;;;-2.94;85.25;99607.91;5030272;28;20068;-74
2021/03/20 00:41:47;;;;;;;14.85;6.35;;;;;;;-3.05;85.18;99607.75;5015471;28;20019;-74
2021/03/20 00:44:12;;;;;;;11.10;6.22;;;;;;;-3.03;85.98;99613.81;5025192;28;20081;-73
2021/03/20 00:46:38;;;;;;;12.23;6.25;;;;;;;-3.05;85.86;99605.09;5015912;28;20025;-73
2021/03/20 00:49:03;;;;;;;12.50;6.22;;;;;;;-3.06;86.18;99600.78;5016509;28;20022;-73
2021/03/20 00:51:29;;;;;;;11.82;5.72;;;;;;;-3.01;86.40;99611.91;5025568;28;20034;-73
2021/03/20 00:53:55;;;;;;;15.15;6.00;;;;;;;-3.06;86.12;99608.72;5031861;28;20069;-73
2021/03/20 00:56:20;;;;;;;12.75;5.75;;;;;;;-3.05;85.98;99607.75;5036320;28;20018;-73
2021/03/20 00:58:46;;;;;;;16.15;6.70;;;;;;;-3.00;86.02;99610.13;5017747;28;20035;-73
2021/03/20 01:01:17;;;;;;;13.95;7.30;;;;;;;-2.99;85.94;99606.50;5011554;28;20049;-74
2021/03/20 01:03:42;;;;;;;11.93;6.10;;;;;;;-3.02;86.47;99612.84;5017006;28;20034;-73
2021/03/20 01:06:28;;;;;;;18.48;7.28;;;;;;;-3.20;86.85;99596.34;5015783;28;20090;-73
2021/03/20 01:08:56;;;;;;;12.90;6.35;;;;;;;-3.29;87.01;99596.09;5016445;28;20081;-74
2021/03/20 01:11:24;;;;;;;11.52;5.45;;;;;;;-3.23;87.52;99611.56;5014430;28;20082;-74
2021/03/20 01:13:50;;;;;;;11.60;5.30;;;;;;;-3.20;87.21;99601.63;5003152;28;20022;-73
2021/03/20 01:16:15;;;;;;;11.48;5.50;;;;;;;-3.08;87.60;99613.25;4991174;28;20052;-73
2021/03/20 01:18:41;;;;;;;11.60;6.22;;;;;;;-3.18;86.95;99615.63;4992061;28;20091;-73
2021/03/20 01:21:08;;;;;;;11.48;5.95;;;;;;;-3.06;87.37;99607.88;5004925;28;20582;-73
2021/03/20 01:23:33;;;;;;;13.63;6.05;;;;;;;-3.03;87.00;99603.22;4997802;28;20488;-73
2021/03/20 01:25:59;;;;;;;9.43;4.88;;;;;;;-2.91;87.28;99612.16;5013241;28;20032;-73
2021/03/20 01:28:26;;;;;;;9.98;5.07;;;;;;;-2.83;86.53;99623.09;5001551;28;20392;-73
2021/03/20 01:30:52;;;;;;;10.55;5.35;;;;;;;-2.82;86.54;99613.41;5006141;28;20442;-73
2021/03/20 01:33:18;;;;;;;10.55;5.28;;;;;;;-2.67;85.53;99612.41;5004290;28;20046;-73
2021/03/20 01:35:43;;;;;;;8.27;4.70;;;;;;;-2.55;85.90;99613.41;4998875;28;20072;-73
2021/03/20 01:38:09;;;;;;;8.05;4.68;;;;;;;-2.42;85.63;99625.72;5005505;28;20113;-73
2021/03/20 01:40:43;;;;;;;8.63;4.70;;;;;;;-2.26;85.41;99624.72;4997479;28;20260;-73
2021/03/20 01:43:12;;;;;;;7.75;4.18;;;;;;;-2.18;85.36;99629.50;4997073;28;20038;-73
2021/03/20 01:45:38;;;;;;;11.32;5.30;;;;;;;-2.09;85.66;99635.06;4997277;28;20022;-73
2021/03/20 01:48:12;;;;;;;8.95;4.75;;;;;;;-2.02;84.96;99632.81;5002084;28;20026;-73
2021/03/20 01:50:50;;;;;;;12.90;4.70;;;;;;;-2.04;85.18;99625.00;4996800;28;20138;-73
2021/03/20 01:53:53;;;;;;;8.55;4.97;;;;;;;-2.01;85.69;99630.09;5001953;28;20026;-73
2021/03/20 01:56:25;;;;;;;7.88;4.35;;;;;;;-1.98;85.20;99626.38;5000435;28;20057;-73
2021/03/20 01:58:52;;;;;;;9.80;4.80;;;;;;;-1.99;85.36;99619.38;4997178;28;20026;-73
2021/03/20 02:01:22;;;;;;;9.70;4.97;;;;;;;-1.92;85.17;99618.00;5005815;28;20056;-73
2021/03/20 02:03:48;;;;;;;9.07;4.57;;;;;;;-1.90;85.32;99617.91;5013553;28;20030;-73
2021/03/20 02:06:14;;;;;;;9.88;5.13;;;;;;;-2.02;85.79;99593.94;5003256;28;20030;-73
2021/03/20 02:08:44;;;;;;;8.32;5.00;;;;;;;-1.87;85.45;99625.66;4994009;28;20439;-72
2021/03/20 02:11:38;;;;;;;8.40;4.72;;;;;;;-1.74;85.91;99615.06;4999025;28;20029;-72
2021/03/20 02:14:22;;;;;;;8.80;4.82;;;;;;;-1.63;85.51;99621.31;4999580;28;20045;-74
2021/03/20 02:16:51;;;;;;;11.27;5.05;;;;;;;-1.51;84.89;99619.63;4987048;28;20029;-73
2021/03/20 02:20:04;;;;;;;7.05;4.15;;;;;;;-1.34;83.63;99616.66;4998951;28;20029;-73
2021/03/20 02:22:37;;;;;;;7.55;4.13;;;;;;;-1.31;83.95;99618.25;4981803;28;20584;-72
2021/03/20 02:25:39;;;;;;;9.00;4.60;;;;;;;-1.26;83.92;99607.28;4987331;28;20484;-72
2021/03/20 02:28:36;;;;;;;9.85;4.25;;;;;;;-1.25;83.62;99596.56;4995069;28;20097;-73
2021/03/20 02:31:38;;;;;;;8.40;4.40;;;;;;;-1.19;82.90;99600.59;5013373;28;20108;-73
2021/03/20 02:34:18;;;;;;;11.68;5.32;;;;;;;-1.14;82.96;99601.94;5002005;28;20057;-73
2021/03/20 02:37:28;;;;;;;10.27;4.78;;;;;;;-1.17;83.06;99598.69;5004958;28;20038;-73
2021/03/20 02:40:22;;;;;;;9.82;4.70;;;;;;;-1.12;83.07;99613.31;4980322;28;20049;-73
2021/03/20 02:42:59;;;;;;;7.82;4.28;;;;;;;-1.18;83.46;99612.88;5003823;28;20030;-73
2021/03/20 02:45:34;;;;;;;9.45;4.40;;;;;;;-1.21;83.18;99605.16;5002301;28;20442;-73
2021/03/20 02:48:05;;;;;;;10.40;4.38;;;;;;;-1.21;83.41;99598.03;5000754;28;20015;-73
2021/03/20 02:50:38;;;;;;;7.45;4.50;;;;;;;-1.20;83.40;99609.53;4993456;28;20026;-73
2021/03/20 02:53:13;;;;;;;7.22;4.25;;;;;;;-1.32;83.56;99593.47;4996131;28;20030;-73
2021/03/20 02:55:44;;;;;;;9.98;4.70;;;;;;;-1.33;83.95;99609.53;4981320;28;20042;-74
2021/03/20 02:58:18;;;;;;;8.85;4.40;;;;;;;-1.26;83.96;99601.97;5006247;28;20116;-73
2021/03/20 03:00:55;;;;;;;8.40;4.97;;;;;;;-1.36;83.96;99599.13;4994666;28;20563;-74
2021/03/20 03:03:25;;;;;;;8.95;4.43;;;;;;;-1.26;84.37;99604.63;4982721;28;20060;-73
2021/03/20 03:06:05;;;;;;;9.88;4.35;;;;;;;-1.25;83.63;99616.97;4994878;28;20101;-73
2021/03/20 03:08:40;;;;;;;8.38;4.35;;;;;;;-1.10;82.99;99607.91;5006620;28;20057;-73
2021/03/20 03:11:20;;;;;;;11.75;5.63;;;;;;;-1.17;82.61;99617.25;5013519;28;20044;-72
2021/03/20 03:13:57;;;;;;;9.23;5.35;;;;;;;-1.31;82.58;99607.63;4995716;28;20030;-74
2021/03/20 03:16:29;;;;;;;9.43;5.43;;;;;;;-1.31;82.65;99612.94;5010332;28;20061;-73
2021/03/20 03:19:01;;;;;;;9.48;5.10;;;;;;;-1.43;83.01;99613.78;5014500;28;20022;-73
2021/03/20 03:21:30;;;;;;;9.05;5.40;;;;;;;-1.38;83.43;99619.63;5011926;28;20026;-73
2021/03/20 03:23:56;;;;;;;9.93;5.13;;;;;;;-1.37;83.67;99626.63;4994921;28;20113;-73
2021/03/20 03:26:31;;;;;;;9.10;5.28;;;;;;;-1.47;83.70;99625.56;4995213;28;20062;-74
2021/03/20 03:29:03;;;;;;;10.07;4.97;;;;;;;-1.55;84.07;99621.66;4993669;28;20030;-73
2021/03/20 03:31:33;;;;;;;8.27;5.07;;;;;;;-1.51;84.02;99642.66;4994029;28;20029;-73
2021/03/20 03:34:08;;;;;;;7.72;4.35;;;;;;;-1.57;84.67;99639.47;4979753;28;20065;-74
2021/03/20 03:36:44;;;;;;;7.85;4.68;;;;;;;-1.58;84.52;99632.44;4991522;28;20140;-73
2021/03/20 03:39:23;;;;;;;9.82;4.45;;;;;;;-1.61;84.31;99648.59;4994580;28;20025;-74
2021/03/20 03:41:48;;;;;;;9.15;4.35;;;;;;;-1.72;83.87;99639.69;4994269;28;20030;-73
2021/03/20 03:44:14;;;;;;;7.88;4.30;;;;;;;-1.78;84.86;99649.75;5000639;28;20026;-72
2021/03/20 03:46:44;;;;;;;7.50;4.30;;;;;;;-1.80;85.48;99656.97;5008998;28;20084;-74
2021/03/20 03:49:13;;;;;;;7.15;4.32;;;;;;;-1.81;85.75;99660.56;4992580;28;20022;-74
2021/03/20 03:51:39;;;;;;;7.43;4.85;;;;;;;-1.89;85.45;99646.97;4993428;28;20388;-73
2021/03/20 03:54:04;;;;;;;7.50;4.53;;;;;;;-1.85;85.08;99650.28;5017618;28;20013;-72
2021/03/20 03:56:58;;;;;;;8.82;4.65;;;;;;;-1.89;85.19;99662.03;5030585;28;20069;-72
2021/03/20 03:59:54;;;;;;;7.93;3.83;;;;;;;-2.03;85.58;99657.66;5016437;28;20017;-73
2021/03/20 04:02:47;;;;;;;7.53;4.28;;;;;;;-2.09;85.85;99653.63;5016145;28;20030;-72
2021/03/20 04:05:25;;;;;;;7.43;4.40;;;;;;;-2.03;86.10;99658.50;5016685;28;20477;-73
2021/03/20 04:08:00;;;;;;;6.47;3.90;;;;;;;-2.21;86.35;99633.22;5002047;28;20020;-72
2021/03/20 04:10:45;;;;;;;8.55;4.63;;;;;;;-2.23;86.63;99635.09;5004311;28;20126;-71
2021/03/20 04:13:32;;;;;;;12.85;4.80;;;;;;;-2.28;86.16;99642.50;5012851;28;20037;-73
2021/03/20 04:16:15;;;;;;;9.23;4.65;;;;;;;-2.35;87.03;99642.09;5015921;28;20036;-74
2021/03/20 04:18:41;;;;;;;10.52;4.63;;;;;;;-2.45;87.48;99647.13;5030257;28;20022;-72
2021/03/20 04:21:41;;;;;;;8.13;5.07;;;;;;;-2.52;87.50;99645.81;5024763;28;20021;-73
2021/03/20 04:24:36;;;;;;;7.63;4.35;;;;;;;-2.68;86.84;99653.06;4981850;28;20299;-72
2021/03/20 04:27:13;;;;;;;7.32;4.35;;;;;;;-2.70;87.75;99661.13;5013653;28;20093;-73
2021/03/20 04:30:00;;;;;;;8.57;4.30;;;;;;;-2.71;87.38;99670.00;5017433;28;20029;-73
2021/03/20 04:32:32;;;;;;;7.93;4.15;;;;;;;-2.66;87.10;99678.50;5000338;28;20026;-73
2021/03/20 04:35:03;;;;;;;7.72;4.20;;;;;;;-2.54;86.76;99679.53;4993010;28;20018;-73
2021/03/20 04:37:39;;;;;;;7.03;3.50;;;;;;;-2.53;85.88;99675.94;4993723;28;20030;-74
2021/03/20 04:40:08;;;;;;;6.63;3.17;;;;;;;-2.50;85.58;99685.47;4981604;28;20050;-74
2021/03/20 04:42:38;;;;;;;5.85;3.33;;;;;;;-2.49;84.67;99687.16;4993869;28;20485;-73
2021/03/20 04:45:23;;;;;;;7.13;3.75;;;;;;;-2.53;83.94;99675.94;4998156;28;20064;-73
2021/03/20 04:47:48;;;;;;;6.05;3.03;;;;;;;-2.48;83.55;99684.44;5007771;28;20064;-73
2021/03/20 04:50:22;;;;;;;6.43;3.22;;;;;;;-2.54;83.70;99676.88;5002241;28;20026;-74
2021/03/20 04:52:49;;;;;;;5.45;3.05;;;;;;;-2.65;84.18;99672.28;5013879;28;20380;-73
2021/03/20 04:55:16;;;;;;;6.68;3.25;;;;;;;-2.69;84.50;99669.91;5007113;28;20026;-73
2021/03/20 04:58:18;;;;;;;6.35;3.25;;;;;;;-2.71;84.68;99677.94;4994698;28;20034;-73
2021/03/20 05:00:49;;;;;;;5.82;3.38;;;;;;;-2.75;84.47;99680.88;4994487;28;20026;-73
2021/03/20 05:03:26;;;;;;;7.35;3.42;;;;;;;-2.77;84.71;99682.81;4997827;28;20030;-73
2021/03/20 05:06:02;;;;;;;5.47;3.03;;;;;;;-2.76;84.62;99685.34;4997309;28;20109;-72
2021/03/20 05:08:54;;;;;;;6.95;3.13;;;;;;;-2.72;84.30;99675.41;4997033;28;20052;-72
2021/03/20 05:11:55;;;;;;;8.30;3.25;;;;;;;-2.72;84.11;99675.41;4997194;28;20034;-72
2021/03/20 05:15:07;;;;;;;8.05;3.08;;;;;;;-2.63;83.63;99681.91;4995122;28;20034;-73
2021/03/20 05:17:32;;;;;;;4.90;2.85;;;;;;;-2.66;83.64;99669.72;4973770;28;20050;-72
2021/03/20 05:19:59;;;;;;;6.18;3.20;;;;;;;-2.61;83.68;99675.56;4983523;28;20029;-72
2021/03/20 05:22:28;;;;;;;5.00;3.13;;;;;;;-2.52;82.76;99677.63;5014114;28;20471;-72
2021/03/20 05:24:55;;;;;;;6.95;3.70;;;;;;;-2.48;82.94;99692.38;4997494;28;20415;-72
2021/03/20 05:27:24;;;;;;;6.25;3.28;;;;;;;-2.51;83.15;99697.03;4995772;28;20086;-74
2021/03/20 05:29:50;;;;;;;7.05;3.50;;;;;;;-2.50;82.54;99693.41;4997290;28;20404;-74
2021/03/20 05:32:23;;;;;;;6.28;3.50;;;;;;;-2.42;82.83;99697.28;4987917;28;20027;-74
2021/03/20 05:34:49;;;;;;;7.30;3.63;;;;;;;-2.40;82.63;99691.03;4987942;28;20034;-73
2021/03/20 05:37:22;;;;;;;8.65;3.70;;;;;;;-2.44;81.99;99693.91;4994645;28;20427;-73
2021/03/20 05:39:48;;;;;;;6.18;3.42;;;;;;;-2.35;82.64;99699.53;4997684;28;20428;-74
2021/03/20 05:42:35;;;;;;;6.15;3.30;;;;;;;-2.46;82.70;99693.13;4994159;28;20026;-74
2021/03/20 05:45:22;;;;;;;7.20;2.97;;;;;;;-2.32;82.24;99699.34;5004560;28;20096;-73
2021/03/20 05:48:15;;;;;;;5.85;3.28;;;;;;;-2.39;82.19;99698.88;4990958;28;20088;-73
2021/03/20 05:51:08;;;;;;;5.85;2.85;;;;;;;-2.30;80.96;99708.06;4996159;28;20018;-73
2021/03/20 05:53:53;;;;;;;4.45;2.58;;;;;;;-2.24;81.06;99702.34;4995162;28;20492;-73
2021/03/20 05:56:47;;;;;;;6.78;3.38;;;;;;;-2.11;80.56;99707.69;4979504;28;20026;-72
2021/03/20 05:59:37;;;;;;;6.63;2.88;;;;;;;-1.96;80.01;99705.84;4978246;28;20440;-74
2021/03/20 06:02:38;;;;;;;5.65;3.22;;;;;;;-1.84;79.66;99705.84;4998954;28;20562;-73
2021/03/20 06:05:24;;;;;;;5.45;3.05;;;;;;;-1.66;79.74;99717.03;5031032;23;20528;-74
2021/03/20 06:08:12;;;;;;;4.57;2.67;;;;;;;-1.49;78.64;99726.53;5034613;28;20072;-73
2021/03/20 06:10:40;;;;;;;4.18;2.42;;;;;;;-1.33;77.34;99718.38;5016425;28;20197;-71
2021/03/20 06:13:53;;;;;;;4.78;3.05;;;;;;;-1.22;76.56;99721.13;5035992;28;20079;-74
2021/03/20 06:16:24;;;;;;;6.13;3.05;;;;;;;-1.14;76.00;99729.41;5012193;28;20132;-74
2021/03/20 06:19:27;;;;;;;6.43;3.03;;;;;;;-0.97;76.58;99735.34;5015695;28;20109;-72
2021/03/20 06:22:01;;;;;;;4.90;2.67;;;;;;;-0.79;75.18;99717.25;5015235;28;20034;-72
2021/03/20 06:24:47;;;;;;;6.10;2.90;;;;;;;-0.74;74.79;99747.84;5013923;28;20018;-71
2021/03/20 06:27:18;;;;;;;5.00;2.60;;;;;;;-0.62;73.97;99747.97;5015218;28;20083;-68
2021/03/20 06:30:15;;;;;;;5.35;3.25;;;;;;;-0.59;74.21;99763.69;5014280;28;20036;-68
2021/03/20 06:32:47;;;;;;;6.88;3.22;;;;;;;-0.36;73.48;99757.59;4999747;28;20036;-68
2021/03/20 06:35:15;;;;;;;6.07;3.00;;;;;;;-0.04;72.99;99757.91;5009074;28;20461;-68
2021/03/20 06:37:48;;;;;;;8.05;3.42;;;;;;;-0.07;72.05;99752.81;5015677;28;20026;-68
2021/03/20 06:40:26;;;;;;;4.97;2.95;;;;;;;0.10;71.92;99750.72;5010865;28;20454;-68
2021/03/20 06:42:53;;;;;;;4.22;2.28;;;;;;;0.22;71.21;99732.03;5005526;28;20534;-68
2021/03/20 06:45:22;;;;;;;8.07;3.05;;;;;;;0.39;71.09;99764.50;5004776;28;20092;-68
2021/03/20 06:47:53;;;;;;;8.32;3.80;;;;;;;0.38;69.92;99760.16;5012667;28;20033;-64
2021/03/20 06:50:20;;;;;;;4.78;3.05;;;;;;;0.52;70.14;99769.75;5009615;28;20026;-68
2021/03/20 06:52:52;;;;;;;4.53;2.90;;;;;;;0.84;68.96;99772.66;5010958;28;20068;-70
2021/03/20 06:55:25;;;;;;;4.82;2.80;;;;;;;1.10;66.64;99778.63;5014688;28;20427;-70
2021/03/20 06:57:50;;;;;;;4.53;2.70;;;;;;;1.37;65.07;99764.97;5012373;28;20022;-72
2021/03/20 07:00:26;;;;;;;3.65;2.55;;;;;;;1.41;64.49;99768.22;5001887;28;20546;-71
2021/03/20 07:03:13;;;;;;;4.85;2.63;;;;;;;1.49;64.52;99772.00;5012266;28;20080;-70
2021/03/20 07:06:09;;;;;;;3.40;2.20;;;;;;;1.77;62.95;99761.78;4996695;28;20080;-71
2021/03/20 07:08:54;;;;;;;4.22;2.25;;;;;;;2.04;62.27;99768.50;4993776;28;20483;-71
2021/03/20 07:11:34;;;;;;;4.25;2.40;;;;;;;1.77;62.44;99768.94;4995154;28;20032;-71
2021/03/20 07:14:03;;;;;;;2.80;2.28;;;;;;;1.79;62.70;99759.00;5013480;28;20113;-70
2021/03/20 07:16:30;;;;;;;5.40;2.63;;;;;;;1.81;62.56;99789.91;5014530;28;20065;-72
2021/03/20 07:19:16;;;;;;;5.18;2.17;;;;;;;2.08;61.98;99780.66;5002927;28;20072;-71
2021/03/20 07:21:43;;;;;;;4.35;2.10;;;;;;;2.44;62.01;99778.56;4993353;28;20120;-72
2021/03/20 07:24:15;;;;;;;4.97;2.55;;;;;;;2.57;61.23;99760.59;5012339;28;20029;-72
2021/03/20 07:26:50;;;;;;;3.55;2.00;;;;;;;3.12;59.51;99765.69;4995303;28;20053;-71
2021/03/20 07:29:16;;;;;;;3.30;2.00;;;;;;;3.43;57.83;99770.13;5011018;28;20048;-72
2021/03/20 07:31:58;;;;;;;4.10;2.10;;;;;;;3.21;57.71;99770.28;5014688;28;20022;-71
2021/03/20 07:34:29;;;;;;;5.18;2.40;;;;;;;3.41;57.70;99782.78;5011368;28;20057;-72
2021/03/20 07:37:14;;;;;;;4.32;2.05;;;;;;;3.88;56.76;99776.91;5014560;28;20037;-72
2021/03/20 07:39:45;;;;;;;6.80;2.42;;;;;;;3.77;56.43;99777.81;5011059;28;20030;-75
2021/03/20 07:42:34;;;;;;;2.58;2.05;;;;;;;4.14;55.74;99775.41;5012676;28;20022;-74
2021/03/20 07:45:04;;;;;;;5.22;2.03;;;;;;;3.97;56.19;99783.25;4995244;28;20026;-75
2021/03/20 07:47:33;;;;;;;2.45;1.75;;;;;;;4.25;55.08;99784.31;5015837;28;20160;-74
2021/03/20 07:50:19;;;;;;;2.40;1.88;;;;;;;3.79;54.74;99775.03;5013269;28;20017;-74
2021/03/20 07:52:47;;;;;;;3.08;2.00;;;;;;;4.76;54.16;99799.28;4989697;28;20229;-73
2021/03/20 07:55:17;;;;;;;2.88;1.88;;;;;;;8.69;47.02;99784.06;5013872;28;20108;-73
2021/03/20 07:57:55;;;;;;;2.95;2.10;;;;;;;9.74;43.18;99792.22;5013399;28;20037;-73
2021/03/20 08:00:26;;;;;;;4.65;2.10;;;;;;;11.75;39.62;99798.44;5014436;28;20041;-72
2021/03/20 08:02:51;;;;;;;2.30;1.70;;;;;;;12.25;37.78;99803.09;5030085;28;20083;-74
2021/03/20 08:05:22;;;;;;;3.15;1.80;;;;;;;10.22;40.22;99787.66;5016950;28;20108;-73
2021/03/20 08:07:50;;;;;;;6.70;2.15;;;;;;;11.24;38.92;99792.84;5033488;28;20040;-72
2021/03/20 08:10:28;;;;;;;2.58;1.80;;;;;;;12.35;36.58;99805.53;5023706;28;20037;-73
2021/03/20 08:13:13;;;;;;;3.38;1.90;;;;;;;14.35;34.74;99788.09;5012040;28;20030;-73
2021/03/20 08:15:50;;;;;;;3.65;2.20;;;;;;;12.91;34.62;99770.41;5012513;28;20658;-76
2021/03/20 08:18:22;;;;;;;3.33;1.63;;;;;;;13.98;34.56;99760.31;5021169;28;20652;-74
2021/03/20 08:21:13;;;;;;;2.95;1.83;;;;;;;14.69;32.58;99790.75;5010204;28;20395;-75
2021/03/20 08:24:07;;;;;;;3.13;1.80;;;;;;;14.11;31.82;99797.66;4998122;28;20045;-77
2021/03/20 08:26:57;;;;;;;3.35;1.73;;;;;;;15.54;31.25;99799.22;5008758;28;20484;-77
2021/03/20 08:29:56;;;;;;;6.75;2.72;;;;;;;14.63;30.94;99797.03;5009399;28;20076;-76
2021/03/20 08:32:46;;;;;;;4.90;2.90;;;;;;;13.37;33.08;99813.50;5000619;28;20117;-76
2021/03/20 08:35:24;;;;;;;4.85;2.15;;;;;;;14.69;30.93;99806.25;5009927;28;20128;-72
2021/03/20 08:37:49;;;;;;;2.80;1.42;;;;;;;15.89;30.67;99807.16;5008677;28;20700;-75
2021/03/20 08:40:33;;;;;;;3.10;1.88;;;;;;;15.26;29.63;99818.50;5007793;28;20022;-75
2021/03/20 08:43:28;;;;;;;2.47;1.50;;;;;;;15.44;29.40;99817.91;5005888;28;20173;-75
2021/03/20 08:46:15;;;;;;;2.28;1.35;;;;;;;14.64;30.44;99815.03;5002923;28;20032;-75
2021/03/20 08:48:53;;;;;;;2.00;1.30;;;;;;;14.33;29.45;99826.44;5002622;28;20034;-75
2021/03/20 08:51:37;;;;;;;2.42;1.27;;;;;;;15.42;29.50;99816.44;4985357;28;20022;-73
2021/03/20 08:54:10;;;;;;;3.65;1.20;;;;;;;16.14;26.18;99807.31;5010396;28;20029;-73
2021/03/20 08:57:13;;;;;;;1.98;1.10;;;;;;;16.97;25.54;99819.34;4998003;28;20092;-73
2021/03/20 08:59:46;;;;;;;4.47;1.40;;;;;;;16.96;25.94;99813.03;5007642;28;20041;-73
2021/03/20 09:02:24;;;;;;;2.53;1.58;;;;;;;16.86;27.67;99818.97;4992403;28;20480;-73
2021/03/20 09:04:52;;;;;;;2.05;1.42;;;;;;;16.74;25.20;99804.31;5010078;28;20044;-73
2021/03/20 09:07:25;;;;;;;3.58;1.65;;;;;;;17.03;25.61;99810.28;5001515;28;20026;-77
2021/03/20 09:09:55;;;;;;;2.17;1.60;;;;;;;17.29;24.62;99812.81;5010794;28;20030;-76
2021/03/20 09:12:32;;;;;;;2.80;1.50;;;;;;;15.28;26.02;99815.59;5011198;28;20025;-72
2021/03/20 09:14:58;;;;;;;2.00;1.30;;;;;;;14.76;27.27;99825.38;5011905;28;20030;-73
2021/03/20 09:17:26;;;;;;;4.68;1.58;;;;;;;12.02;31.61;99834.94;5008792;28;20555;-75
2021/03/20 09:19:55;;;;;;;2.47;1.48;;;;;;;10.04;34.73;99841.97;5004913;28;20121;-73
2021/03/20 09:22:24;;;;;;;4.05;1.80;;;;;;;9.84;34.91;99838.81;4993982;28;20076;-72
2021/03/20 09:24:53;;;;;;;2.20;1.70;;;;;;;9.81;36.08;99848.09;4998407;28;20060;-72
2021/03/20 09:27:56;;;;;;;2.97;1.75;;;;;;;8.58;36.99;99838.34;5008703;28;20022;-73
2021/03/20 09:30:42;;;;;;;3.28;1.73;;;;;;;9.40;36.05;99837.34;5013712;28;20036;-72
2021/03/20 09:33:19;;;;;;;2.83;1.27;;;;;;;8.90;37.25;99838.38;5006704;28;20030;-72
2021/03/20 09:35:51;;;;;;;3.97;1.73;;;;;;;9.10;37.44;99840.75;5002291;28;20077;-72
2021/03/20 09:38:35;;;;;;;3.95;1.45;;;;;;;9.15;37.54;99838.41;5002405;28;20376;-73
2021/03/20 09:41:20;;;;;;;1.83;1.23;;;;;;;9.12;37.14;99847.69;5013593;28;20484;-71
2021/03/20 09:43:55;;;;;;;3.13;1.60;;;;;;;10.03;35.60;99845.66;5010689;28;20030;-71
2021/03/20 09:46:38;;;;;;;2.17;1.52;;;;;;;11.21;34.62;99831.13;4998999;28;20034;-71
2021/03/20 09:49:24;;;;;;;3.47;1.88;;;;;;;10.39;36.66;99829.84;5010405;28;20061;-72
2021/03/20 09:51:54;;;;;;;2.35;1.77;;;;;;;10.67;35.19;99837.47;4996865;28;20041;-72
2021/03/20 09:54:23;;;;;;;2.58;1.55;;;;;;;11.82;33.99;99830.06;5010037;28;20030;-72
2021/03/20 09:59:36;;;;;;;1.13;1.02;;;;;;;13.06;30.65;99821.97;4975193;28;20041;-75
2021/03/20 10:02:09;;;;;;;2.25;1.30;;;;;;;12.97;32.18;99822.28;5010425;28;20075;-74
2021/03/20 10:04:51;;;;;;;2.10;1.40;;;;;;;13.78;31.58;99818.19;5026103;28;20033;-73
2021/03/20 10:07:19;;;;;;;1.95;1.35;;;;;;;12.34;32.48;99827.41;5015513;28;20036;-73
2021/03/20 10:10:15;;;;;;;2.72;1.50;;;;;;;13.30;32.95;99815.31;5022331;28;20493;-73
2021/03/20 10:12:44;;;;;;;2.42;1.38;;;;;;;14.03;32.58;99810.38;5016628;28;20032;-74
2021/03/20 10:15:15;;;;;;;3.17;1.45;;;;;;;16.08;29.23;99807.31;5009721;28;20029;-73
2021/03/20 10:18:01;;;;;;;2.30;1.45;;;;;;;17.39;27.98;99803.25;5001881;28;20021;-73
2021/03/20 10:20:51;;;;;;;2.80;1.33;;;;;;;17.27;27.19;99795.78;5006289;28;20096;-74
2021/03/20 10:23:25;;;;;;;2.42;1.55;;;;;;;18.33;25.37;99801.25;5014150;28;20049;-71
2021/03/20 10:25:55;;;;;;;2.72;1.50;;;;;;;17.96;26.46;99813.03;5012282;28;20018;-70
2021/03/20 10:28:29;;;;;;;1.67;1.20;;;;;;;18.99;26.02;99803.16;5008152;28;20026;-73
2021/03/20 10:30:59;;;;;;;2.20;1.40;;;;;;;19.40;25.07;99795.94;5006741;28;20026;-71
2021/03/20 10:33:32;;;;;;;4.22;1.48;;;;;;;17.91;26.20;99803.84;5021756;28;20025;-75
2021/03/20 10:36:09;;;;;;;2.40;1.60;;;;;;;17.72;27.50;99805.69;5029418;28;20083;-75
2021/03/20 10:38:35;;;;;;;1.92;1.45;;;;;;;16.90;27.78;99807.59;5009257;28;20124;-74
2021/03/20 10:41:07;;;;;;;1.83;1.48;;;;;;;17.33;27.48;99791.31;4998658;28;20432;-75
2021/03/20 10:43:44;;;;;;;2.75;1.45;;;;;;;18.36;27.26;99784.34;5029240;28;20036;-74
2021/03/20 10:46:23;;;;;;;3.80;1.55;;;;;;;18.02;26.11;99770.22;5012656;28;20712;-75
2021/03/20 10:48:51;;;;;;;2.47;1.42;;;;;;;17.43;26.83;99769.75;5022780;28;20053;-75
2021/03/20 10:51:18;;;;;;;1.55;1.15;;;;;;;16.41;26.80;99780.72;5028250;28;20057;-75
2021/03/20 10:53:51;;;;;;;6.53;2.35;;;;;;;16.76;27.56;99790.41;5014329;28;20034;-74
2021/03/20 10:56:36;;;;;;;2.33;1.50;;;;;;;18.17;27.60;99787.09;5003804;28;20034;-75
2021/03/20 10:59:34;;;;;;;2.42;1.35;;;;;;;16.34;26.58;99790.84;5019018;28;20072;-75
2021/03/20 11:02:36;;;;;;;2.20;1.50;;;;;;;16.57;26.94;99794.94;4981809;28;20167;-76
2021/03/20 11:05:13;;;;;;;1.80;1.42;;;;;;;17.68;26.41;99794.38;4997783;28;20046;-75
2021/03/20 11:07:46;;;;;;;4.22;1.40;;;;;;;19.55;24.52;99784.50;5008399;28;20564;-78
2021/03/20 11:10:13;;;;;;;1.85;1.30;;;;;;;19.66;24.83;99782.81;5013803;28;20029;-76
2021/03/20 11:12:38;;;;;;;2.70;1.45;;;;;;;18.64;25.25;99780.22;5014563;28;20086;-75
2021/03/20 11:15:04;;;;;;;1.77;1.40;;;;;;;19.91;24.53;99788.06;5021979;28;20026;-76
2021/03/20 11:17:32;;;;;;;5.25;1.60;;;;;;;19.98;23.68;99785.22;4989745;28;20025;-76
2021/03/20 11:20:08;;;;;;;2.78;1.60;;;;;;;20.43;22.62;99790.00;5030885;28;20040;-76
2021/03/20 11:22:38;;;;;;;2.35;1.55;;;;;;;19.30;23.86;99773.72;5024240;28;20140;-75
2021/03/20 11:25:19;;;;;;;1.88;1.15;;;;;;;18.76;24.45;99775.66;5013525;28;20021;-75
2021/03/20 11:27:57;;;;;;;1.65;1.05;;;;;;;19.58;23.50;99772.19;4991363;28;20113;-76
2021/03/20 11:30:27;;;;;;;2.05;1.38;;;;;;;17.59;26.49;99770.25;4996692;28;20048;-76
2021/03/20 11:32:59;;;;;;;2.83;1.60;;;;;;;17.65;25.45;99783.84;5010940;28;20350;-75
2021/03/20 11:35:39;;;;;;;1.77;1.25;;;;;;;17.73;26.05;99789.03;5005678;28;20038;-76
2021/03/20 11:38:05;;;;;;;3.70;1.55;;;;;;;17.22;25.66;99784.66;5001589;28;20033;-76
2021/03/20 11:40:34;;;;;;;1.92;1.30;;;;;;;17.29;25.58;99755.38;5013299;28;20029;-75
2021/03/20 11:43:05;;;;;;;;;;;;;;;18.77;24.97;99778.13;5021010;28;20120;-75
2021/03/20 11:45:34;;;;;;;2.63;1.50;;;;;;;19.59;22.74;99771.13;5003041;28;19916;-75
2021/03/20 11:48:14;;;;;;;2.58;1.63;;;;;;;19.60;23.64;99767.31;5012089;28;20060;-76
2021/03/20 11:50:40;;;;;;;2.17;1.58;;;;;;;19.60;25.63;99759.09;5005935;28;20064;-74
2021/03/20 11:53:23;;;;;;;2.10;1.38;;;;;;;19.09;25.51;99763.31;5004568;28;20085;-74
2021/03/20 11:55:51;;;;;;;2.33;1.40;;;;;;;19.59;22.54;99762.88;5006005;28;20104;-75
2021/03/20 11:58:29;;;;;;;2.80;1.55;;;;;;;18.48;24.85;99754.28;5002635;28;20014;-74
2021/03/20 12:00:56;;;;;;;2.38;1.40;;;;;;;19.00;24.33;99758.19;5019495;28;20767;-74
2021/03/20 12:03:21;;;;;;;2.35;1.48;;;;;;;18.24;25.13;99753.34;5004576;28;20497;-73
2021/03/20 12:05:48;;;;;;;2.22;1.40;;;;;;;18.03;24.06;99754.66;4990486;28;20165;-74
2021/03/20 12:08:38;;;;;;;4.63;1.10;;;;;;;16.33;26.65;99761.88;4999183;28;20017;-73
2021/03/20 12:11:06;;;;;;;2.65;1.30;;;;;;;15.91;25.03;99755.09;5003953;28;20049;-74
2021/03/20 12:13:50;;;;;;;2.47;1.33;;;;;;;16.21;25.75;99769.88;5027434;28;20044;-74
2021/03/20 12:16:30;;;;;;;3.22;1.70;;;;;;;16.62;25.67;99759.63;5026019;28;20025;-75